Latest Weather Observations for Minlaton Airport

IDS60801

Issued at 8:01 am CDT Sunday 26 March 2017 (issued every 30 minutes, with the page automatically refreshed every 10 minutes)

About weather observations | Map of weather stations | Latest weather observations for SA | Other Formats
Station Details ID: 022031 Name: MINLATON AERO Lat: -34.75 Lon: 137.53 Height: 32.0 m
Data from the previous 72 hours. | See also: Recent months at Minlaton Airport
Date/Time
CDT
Temp
°C
App
Temp
°C
Dew
Point
°C
Rel
Hum
%
Delta-T
°C
Wind Press
QNH
hPa
Press
MSL
hPa
Rain since
9am
mm
Dir  Spd
km/h
Gust
km/h
Spd
kts
Gust
kts
26/08:00am 20.9 20.9 17.1 79 2.3 SSE 13 15 7 8 1011.5 1011.4 0.0
26/07:30am 20.6 19.4 17.0 80 2.2 E 19 24 10 13 1011.1 1011.0 0.0
26/07:00am 20.6 19.5 17.4 82 2.0 E 19 22 10 12 1011.1 1011.0 0.0
26/06:30am 20.5 19.1 17.1 81 2.1 ENE 20 22 11 12 1010.7 1010.6 0.0
26/06:00am 20.2 19.9 17.4 84 1.7 ENE 15 20 8 11 1010.7 1010.6 0.0
26/05:30am 20.0 18.8 17.6 86 1.5 ENE 20 24 11 13 1010.5 1010.4 0.0
26/05:00am 19.7 18.2 17.7 88 1.2 ENE 22 26 12 14 1010.5 1010.4 0.0
26/04:30am 19.4 18.2 17.4 88 1.2 ENE 20 24 11 13 1011.3 1011.2 0.0
26/04:00am 19.5 18.5 17.5 88 1.2 E 19 22 10 12 1011.8 1011.7 0.0
26/03:30am 19.0 19.7 17.1 89 1.2 ESE 9 11 5 6 1012.3 1012.2 0.0
26/03:00am 18.9 20.1 16.9 88 1.2 SE 6 7 3 4 1012.9 1012.8 0.0
26/02:30am 19.0 20.1 17.0 88 1.2 SSE 7 11 4 6 1013.1 1013.0 0.0
26/02:00am 19.1 19.4 16.9 87 1.3 SSE 11 13 6 7 1013.3 1013.2 0.0
26/01:30am 19.1 19.4 16.9 87 1.3 SSE 11 13 6 7 1013.7 1013.6 0.0
26/01:00am 18.7 19.0 16.9 89 1.1 SSE 11 13 6 7 1013.7 1013.6 0.0
26/12:30am 18.6 19.2 16.8 89 1.1 SE 9 11 5 6 1014.0 1013.9 0.0
26/12:00am 18.4 18.4 16.2 87 1.3 SSE 11 13 6 7 1014.0 1013.9 0.0
 
Date/Time
CDT
Temp
°C
App
Temp
°C
Dew
Point
°C
Rel
Hum
%
Delta-T
°C
Wind Press
QNH
hPa
Press
MSL
hPa
Rain since
9am
mm
Dir  Spd
km/h
Gust
km/h
Spd
kts
Gust
kts
25/11:30pm 19.0 19.5 16.6 86 1.4 SSE 9 11 5 6 1014.2 1014.1 0.0
25/11:00pm 19.0 19.1 16.4 85 1.6 SE 11 13 6 7 1014.3 1014.2 0.0
25/10:30pm 19.2 19.3 16.4 84 1.7 SSE 11 13 6 7 1014.5 1014.4 0.0
25/10:00pm 19.2 18.8 16.2 83 1.8 SSE 13 15 7 8 1014.6 1014.5 0.0
25/09:30pm 19.7 20.1 16.3 81 2.0 SSE 9 13 5 7 1014.5 1014.4 0.0
25/09:00pm 20.2 20.2 16.2 78 2.4 SE 11 13 6 7 1014.2 1014.1 0.0
25/08:30pm 20.7 19.6 16.3 76 2.7 SE 17 19 9 10 1013.6 1013.5 0.0
25/08:00pm 21.2 20.0 16.2 73 3.0 ESE 17 22 9 12 1013.1 1013.0 0.0
25/07:30pm 21.6 20.4 16.1 71 3.3 SE 17 20 9 11 1013.2 1013.1 0.0
25/07:00pm 22.3 21.1 16.1 68 3.7 ESE 17 20 9 11 1013.2 1013.1 0.0
25/06:30pm 22.9 21.2 16.2 66 4.1 SE 20 28 11 15 1012.6 1012.5 0.0
25/06:00pm 24.0 22.4 16.5 63 4.6 SE 20 26 11 14 1012.8 1012.7 0.0
25/05:30pm 23.4 21.5 15.7 62 4.6 ESE 20 24 11 13 1012.6 1012.5 0.0
25/05:00pm 24.4 22.4 15.6 58 5.3 ESE 20 26 11 14 1012.4 1012.3 0.0
25/04:30pm 25.2 23.9 15.8 56 5.7 SE 17 22 9 12 1012.9 1012.8 0.0
25/04:00pm 25.8 25.1 15.5 53 6.3 SE 13 17 7 9 1012.8 1012.7 0.0
25/03:30pm 25.6 25.2 16.2 56 5.8 SSW 13 20 7 11 1013.0 1012.9 0.0
25/03:00pm 26.4 25.3 15.4 50 6.7 S 15 20 8 11 1013.1 1013.0 0.0
25/02:30pm 26.5 25.6 14.9 49 7.0 SSE 13 19 7 10 1013.3 1013.2 0.0
25/02:00pm 26.9 25.3 15.0 48 7.2 S 17 24 9 13 1013.5 1013.4 0.0
25/01:30pm 26.9 26.1 15.0 48 7.2 S 13 20 7 11 1013.8 1013.7 0.0
25/01:00pm 25.4 23.8 15.1 53 6.2 S 17 24 9 13 1014.1 1014.0 0.0
25/12:30pm 25.4 24.2 15.1 53 6.2 SSE 15 20 8 11 1013.9 1013.8 0.0
25/12:00pm 24.9 23.4 15.2 54 5.8 S 17 24 9 13 1014.2 1014.1 0.0
25/11:30am 24.4 24.0 16.1 60 5.1 SSE 13 17 7 9 1014.4 1014.3 0.0
25/11:00am 24.0 23.9 17.0 65 4.3 SSE 13 19 7 10 1014.5 1014.4 0.0
25/10:30am 23.8 24.1 17.8 69 3.7 SE 13 20 7 11 1014.4 1014.3 0.0
25/10:00am 22.2 22.5 18.0 77 2.6 SSE 13 15 7 8 1014.0 1013.9 0.0
25/09:30am 21.1 21.5 17.3 79 2.3 S 11 13 6 7 1013.9 1013.8 0.0
25/09:00am 20.2 21.2 16.8 81 2.1 SSW 7 9 4 5 1013.5 1013.4 0.0
25/08:30am 19.4 22.0 17.5 89 1.2 CALM 0 0 0 0 1013.3 1013.2 0.0
25/08:00am 18.3 20.6 16.8 91 0.9 CALM 0 6 0 3 1012.8 1012.7 0.0
25/07:30am 17.6 18.5 16.1 91 0.9 SSW 6 7 3 4 1012.6 1012.5 0.0
25/07:00am 17.6 17.9 16.1 91 0.9 S 9 13 5 7 1012.3 1012.2 0.0
25/06:30am 17.9 18.0 16.6 92 0.8 S 11 11 6 6 1012.1 1012.0 0.0
25/06:00am 18.4 19.5 17.2 93 0.7 S 7 9 4 5 1011.7 1011.6 0.0
25/05:30am 18.4 19.5 17.2 93 0.7 SSW 7 11 4 6 1011.4 1011.3 0.0
25/05:00am 18.3 19.0 17.0 92 0.8 SSW 9 13 5 7 1011.3 1011.2 0.0
25/04:30am 18.7 19.8 17.0 90 1.0 WSW 7 9 4 5 1011.1 1011.0 0.0
25/04:00am 17.8 18.0 15.8 88 1.2 WNW 9 11 5 6 1010.9 1010.8 0.0
25/03:30am 17.4 17.3 15.0 86 1.4 NNW 9 11 5 6 1010.9 1010.8 0.0
25/03:00am 19.3 19.6 16.0 81 2.0 NE 9 13 5 7 1011.0 1010.9 0.0
25/02:30am 19.5 19.5 16.2 81 2.0 ENE 11 13 6 7 1011.3 1011.2 0.0
25/02:00am 19.6 18.9 16.3 81 2.0 ENE 15 19 8 10 1011.4 1011.3 0.0
25/01:30am 19.4 20.7 16.2 82 1.9 SSW 4 11 2 6 1012.1 1012.0 0.0
25/01:00am 20.4 21.4 16.8 80 2.2 SW 7 9 4 5 1012.4 1012.3 0.0
25/12:30am 20.3 20.2 16.1 77 2.5 SSW 11 13 6 7 1012.5 1012.4 0.0
25/12:00am 20.4 19.9 15.8 75 2.7 WSW 13 13 7 7 1012.7 1012.6 0.0
 
Date/Time
CDT
Temp
°C
App
Temp
°C
Dew
Point
°C
Rel
Hum
%
Delta-T
°C
Wind Press
QNH
hPa
Press
MSL
hPa
Rain since
9am
mm
Dir  Spd
km/h
Gust
km/h
Spd
kts
Gust
kts
24/11:30pm 21.1 22.2 14.5 66 3.9 E 2 9 1 5 1012.3 1012.2 0.0
24/11:00pm 21.9 22.2 15.0 65 4.1 E 7 11 4 6 1012.1 1012.0 0.0
24/10:30pm 21.5 21.8 14.9 66 3.9 ESE 7 9 4 5 1012.4 1012.3 0.0
24/10:00pm 21.9 22.2 15.0 65 4.1 ESE 7 7 4 4 1012.6 1012.5 0.0
24/09:30pm 22.1 22.1 15.2 65 4.1 S 9 13 5 7 1012.6 1012.5 0.0
24/09:00pm 22.3 21.2 14.4 61 4.6 S 13 15 7 8 1012.7 1012.6 0.0
24/08:30pm 22.4 21.2 14.0 59 4.9 S 13 15 7 8 1012.6 1012.5 0.0
24/08:00pm 23.4 22.8 14.7 58 5.2 S 11 13 6 7 1012.4 1012.3 0.0
24/07:30pm 24.9 23.6 14.7 53 6.1 S 15 17 8 9 1012.3 1012.2 0.0
24/07:00pm 26.2 24.0 14.3 48 7.1 S 19 24 10 13 1012.0 1011.9 0.0
24/06:30pm 25.0 25.2 17.7 64 4.6 SW 13 19 7 10 1012.1 1012.0 0.0
24/06:00pm 25.3 23.2 16.2 57 5.6 WSW 22 32 12 17 1012.0 1011.9 0.0
24/05:30pm 28.4 25.9 13.5 40 8.9 W 19 22 10 12 1011.7 1011.6 0.0
24/05:00pm 28.9 27.2 12.3 36 9.7 W 13 17 7 9 1011.7 1011.6 0.0
24/04:30pm 28.5 26.8 13.6 40 8.9 W 15 19 8 10 1012.1 1012.0 0.0
24/04:00pm 28.7 26.2 13.4 39 9.1 W 19 22 10 12 1012.1 1012.0 0.0
24/03:30pm 28.9 27.4 14.3 40 8.8 W 15 19 8 10 1012.2 1012.1 0.0
24/03:00pm 28.6 26.2 13.7 40 8.9 W 19 22 10 12 1012.3 1012.2 0.0
24/02:30pm 30.5 27.8 12.9 34 10.5 WNW 19 24 10 13 1012.3 1012.2 0.0
24/02:00pm 28.9 26.1 14.3 40 8.8 WNW 22 28 12 15 1012.7 1012.6 0.0
24/01:30pm 30.6 27.5 13.4 35 10.3 WNW 22 28 12 15 1012.7 1012.6 0.0
24/01:00pm 30.4 27.7 14.5 38 9.7 NW 22 30 12 16 1013.0 1012.9 0.0
24/12:30pm 29.6 26.1 14.6 40 9.1 NW 26 32 14 17 1013.2 1013.1 0.0
24/12:00pm 31.8 29.3 14.0 34 10.8 N 20 28 11 15 1013.2 1013.1 0.0
24/11:30am 30.3 27.3 13.6 36 10.0 N 22 32 12 17 1013.3 1013.2 0.0
24/11:00am 29.4 26.5 15.1 41 8.7 NE 24 30 13 16 1013.6 1013.5 0.0
24/10:30am 27.0 23.6 14.7 47 7.4 NE 26 33 14 18 1013.7 1013.6 0.0
24/10:00am 25.3 21.1 15.6 55 5.9 ENE 32 39 17 21 1013.3 1013.2 0.0
24/09:30am 23.4 19.4 15.2 60 4.9 ENE 30 37 16 20 1013.5 1013.4 0.0
24/09:00am 22.1 18.0 15.0 64 4.2 ENE 30 37 16 20 1014.0 1013.9 0.0
24/08:30am 21.0 17.3 14.9 68 3.6 ENE 28 35 15 19 1013.7 1013.6 0.0
24/08:00am 20.2 16.1 15.0 72 3.1 ENE 30 35 16 19 1013.4 1013.3 0.0
24/07:30am 19.6 15.5 14.8 74 2.8 ENE 30 35 16 19 1013.2 1013.1 0.0
24/07:00am 19.3 15.2 15.0 76 2.5 ENE 30 35 16 19 1013.4 1013.3 0.0
24/06:30am 19.0 15.5 15.5 80 2.1 ENE 28 35 15 19 1013.4 1013.3 0.0
24/06:00am 18.9 15.9 15.8 82 1.8 E 26 30 14 16 1013.3 1013.2 0.0
24/05:30am 18.8 16.2 16.0 84 1.7 E 24 30 13 16 1013.3 1013.2 0.0
24/05:00am 18.3 15.9 16.3 88 1.2 E 24 26 13 14 1013.4 1013.3 0.0
24/04:30am 18.2 16.4 16.0 87 1.3 E 20 24 11 13 1013.5 1013.4 0.0
24/04:00am 18.7 17.1 16.5 87 1.3 E 20 24 11 13 1013.8 1013.7 0.0
24/03:30am 18.8 16.3 16.2 85 1.6 E 24 28 13 15 1013.5 1013.4 0.0
24/03:00am 19.0 16.5 16.2 84 1.7 ESE 24 30 13 16 1013.9 1013.8 0.0
24/02:30am 19.3 16.4 16.0 81 2.0 E 26 32 14 17 1014.0 1013.9 0.0
24/02:00am 19.1 17.2 15.8 81 2.0 ESE 20 26 11 14 1014.5 1014.4 0.0
24/01:30am 19.2 16.6 15.9 81 2.0 ESE 24 30 13 16 1014.8 1014.7 0.0
24/01:00am 19.2 15.9 16.1 82 1.9 ESE 28 33 15 18 1015.2 1015.1 0.0
24/12:30am 18.9 15.1 15.8 82 1.8 ESE 30 37 16 20 1015.3 1015.2 0.0
24/12:00am 18.8 15.4 15.9 83 1.7 ESE 28 35 15 19 1015.8 1015.7 0.0
 
Date/Time
CDT
Temp
°C
App
Temp
°C
Dew
Point
°C
Rel
Hum
%
Delta-T
°C
Wind Press
QNH
hPa
Press
MSL
hPa
Rain since
9am
mm
Dir  Spd
km/h
Gust
km/h
Spd
kts
Gust
kts
23/11:30pm 18.8 16.1 15.7 82 1.8 SE 24 33 13 18 1016.3 1016.2 0.0
23/11:00pm 18.7 16.3 15.4 81 1.9 SE 22 30 12 16 1016.6 1016.5 0.0
23/10:30pm 18.9 16.2 15.6 81 1.9 SE 24 32 13 17 1016.4 1016.3 0.0
23/10:00pm 18.8 16.1 15.7 82 1.8 SE 24 33 13 18 1016.4 1016.3 0.0
23/09:30pm 18.6 16.7 15.7 83 1.7 SSE 20 26 11 14 1016.4 1016.3 0.0
23/09:00pm 18.6 15.8 15.3 81 1.9 SE 24 32 13 17 1016.0 1015.9 0.0
23/08:30pm 18.7 16.3 15.4 81 1.9 SSE 22 28 12 15 1015.9 1015.8 0.0
23/08:00pm 19.3 16.4 15.2 77 2.4 SSE 24 30 13 16 1015.6 1015.5 0.0
23/07:30pm 20.4 17.4 14.7 70 3.3 SSE 24 32 13 17 1015.6 1015.5 0.0
23/07:00pm 21.5 18.4 14.6 65 4.1 SSE 24 32 13 17 1015.1 1015.0 0.0
23/06:30pm 22.3 18.8 14.4 61 4.6 SSE 26 33 14 18 1015.2 1015.1 0.0
23/06:00pm 24.3 19.8 13.8 52 6.2 SE 30 37 16 20 1014.8 1014.7 0.0
23/05:30pm 25.3 21.7 14.1 50 6.6 SSE 26 35 14 19 1015.1 1015.0 0.0
23/05:00pm 25.6 22.6 13.8 48 7.0 SE 22 32 12 17 1015.1 1015.0 0.0
23/04:30pm 26.3 22.9 13.8 46 7.4 SE 24 39 13 21 1015.0 1014.9 0.0
23/04:00pm 26.7 23.4 14.1 46 7.5 ESE 24 35 13 19 1014.9 1014.8 0.0
23/03:30pm 26.6 22.7 13.3 43 7.8 ESE 26 33 14 18 1015.2 1015.1 0.0
23/03:00pm 25.7 21.8 13.2 46 7.3 ESE 26 37 14 20 1015.2 1015.1 0.0
23/02:30pm 25.4 21.1 13.3 47 7.1 ESE 28 37 15 20 1015.4 1015.3 0.0
23/02:00pm 25.2 21.3 13.4 48 6.9 SE 26 37 14 20 1015.9 1015.8 0.0
23/01:30pm 24.5 20.3 13.4 50 6.5 SE 28 39 15 21 1016.7 1016.6 0.0
23/01:00pm 24.4 19.9 12.7 48 6.7 SE 28 39 15 21 1016.9 1016.8 0.0
23/12:30pm 23.9 19.2 13.2 51 6.2 SE 30 39 16 21 1017.5 1017.4 0.0
23/12:00pm 24.6 20.2 14.1 52 6.2 ESE 30 39 16 21 1018.0 1017.9 0.0
23/11:30am 22.7 18.9 13.7 56 5.2 SE 26 37 14 20 1018.3 1018.2 0.0
23/11:00am 22.5 18.4 13.8 58 5.1 ESE 28 41 15 22 1018.5 1018.4 0.0
23/10:30am 21.4 17.8 14.1 63 4.2 ESE 26 33 14 18 1018.8 1018.7 0.0
23/10:00am 20.9 17.8 14.5 67 3.7 ESE 24 32 13 17 1018.5 1018.4 0.0
23/09:30am 20.0 17.0 14.8 72 3.0 ESE 24 32 13 17 1018.5 1018.4 0.0
23/09:00am 19.4 16.7 14.6 74 2.8 ESE 22 30 12 16 1018.2 1018.1 0.0
23/08:30am 19.3 17.8 15.4 78 2.3 SE 17 24 9 13 1018.5 1018.4 0.0

Other Formats:

Comma delimited format used in spreadsheet applications
http://www.bom.gov.au/fwo/IDS60801/IDS60801.95659.axf

JavaScript Object Notation format (JSON) in row-major order
http://www.bom.gov.au/fwo/IDS60801/IDS60801.95659.json